Staples, MN

5:36 PM CDT on March 29, 2015 (GMT -0500)
Staples Municipal | | Change Station
CLOSE
Current Station
Airport
Location: Staples,
Elevation: 1286 ft
Nearby Weather Stations
Active Advisory: Wind Advisory Active Notice: Public Information Statement

Elev 1286 ft 46.38 °N, 94.81 °W | Updated 3 minutes ago

Mostly Cloudy
Mostly Cloudy
50 °F
Feels Like 50 °F
N
23
Wind Variable Wind from NW
Gusts 31 mph

Today
High -- | Low -- °F
--% Chance of Precip.
Yesterday
High -- | Low -- °F
Precip. -- in
7:05 AM 7:43 PM
Waxing Gibbous, 74% visible
Pressure 29.85 in
Visibility 10.0 miles
Clouds Mostly Cloudy 6500 ft
Dew Point 27 °F
Humidity 40%
Rainfall 0.35 in
Snow Depth Not available.
UV 1 out of 12
Pollen .90 out of 12
Air Quality Not available.
Flu Activity Not available.
METAR KSAZ 292233Z AUTO 31020G27KT 10SM BKN065 10/M03 A2985 RMK AO2

More Conditions Fewer Conditions

Pressure 29.85 in
Visibility 10.0 miles
Clouds Mostly Cloudy 6500 ft
Dew Point 27 °F
Humidity 40%
Rainfall 0.35 in
Snow Depth Not available.
UV 1 out of 12
Pollen .90 out of 12
Air Quality Not available.
Flu Activity Not available.
METAR KSAZ 292233Z AUTO 31020G27KT 10SM BKN065 10/M03 A2985 RMK AO2

More Conditions Fewer Conditions

10-Day Weather Forecast

Almanac

Astronomy

Mar. 29, 2015 Rise Set
Actual Time
Civil Twilight
Nautical Twilight
Astronomical Twilight
Moon
Length of Visible Light
Length of Day
Tomorrow will be .
, % of the Moon is Illuminated

Today's Extremes

State Highs State Lows

Community

WunderPhotos

Upload Photos

1,809,376 photos uploaded!

WunderBlogs® & News

Nearby

Air Quality

  Air Quality AQ Index Pollutant
Not available.

Snow Depth

Station Depth Elevation

Earthquake Activity

City Distance Mag. Time & Date
Minimum magnitude displayed is 2.5.

Coastal Water Temperatures

Place Temperature

Stations

Nearby Weather Stations

Station Location Temp. Windchill Dew Point Humidity Wind Precip. Elev Updated Type
                   
Wind Advisory
Statement as of 11:16 AM CDT on March 29, 2015

... Wind Advisory remains in effect until 6 PM CDT this evening...

* timing... through the afternoon hours.

* Winds... northwest 30 to 35 mph with gusts 45 to 50 mph.

* Impacts... driving may be difficult at times... especially for
high profile and light weight vehicles. Unsecured outdoor
items will be blown around.

Precautionary/preparedness actions...

A Wind Advisory means that sustained winds of 30 to 39 mph or
gusts between 45 and 57 mph are expected. Winds this strong can
make driving difficult... especially for high profile vehicles.
Use extra caution.